createdAt,value
2018-10-04T00:01:27.758Z,7.20
2018-10-04T00:03:58.053Z,5.47
2018-10-04T00:06:28.307Z,6.00
2018-10-04T00:08:58.698Z,6.90
2018-10-04T00:11:31.037Z,6.47
2018-10-04T00:14:00.537Z,5.73
2018-10-04T00:16:31.373Z,6.53
2018-10-04T00:19:00.818Z,5.80
2018-10-04T00:21:30.970Z,5.83
2018-10-04T00:24:00.487Z,6.73
2018-10-04T00:26:30.706Z,5.50
2018-10-04T00:29:00.848Z,5.40
2018-10-04T00:31:31.126Z,5.37
2018-10-04T00:34:00.553Z,7.80
2018-10-04T00:36:30.162Z,5.77
2018-10-04T00:38:59.608Z,5.87
2018-10-04T00:41:29.231Z,5.27
2018-10-04T00:43:58.823Z,5.30
2018-10-04T00:46:28.617Z,5.27
2018-10-04T00:49:01.337Z,5.07
2018-10-04T00:51:32.973Z,5.57
2018-10-04T00:54:02.410Z,5.47
2018-10-04T00:56:32.466Z,5.60
2018-10-04T00:59:01.937Z,5.50
2018-10-04T01:01:32.604Z,5.53
2018-10-04T01:04:02.302Z,5.50
2018-10-04T01:06:32.145Z,5.43
2018-10-04T01:09:01.696Z,5.93
2018-10-04T01:11:32.070Z,5.63
2018-10-04T01:14:01.568Z,5.90
2018-10-04T01:16:31.147Z,4.83
2018-10-04T01:19:01.611Z,5.90
2018-10-04T01:21:31.024Z,4.70
2018-10-04T01:24:00.660Z,4.90
2018-10-04T01:26:46.828Z,5.60
2018-10-04T01:29:19.144Z,5.00
2018-10-04T01:31:48.517Z,5.30
2018-10-04T01:34:17.857Z,5.93
2018-10-04T01:36:47.310Z,5.20
2018-10-04T01:39:16.695Z,5.90
2018-10-04T01:41:46.123Z,5.07
2018-10-04T01:44:15.389Z,5.23
2018-10-04T01:46:44.929Z,4.93
2018-10-04T01:49:14.338Z,5.33
2018-10-04T01:51:43.806Z,4.43
2018-10-04T01:54:13.386Z,6.57
2018-10-04T01:56:42.752Z,5.47
2018-10-04T01:59:13.960Z,5.90
2018-10-04T02:01:43.432Z,5.23
2018-10-04T02:04:12.990Z,4.67
2018-10-04T02:06:42.366Z,5.07
2018-10-04T02:09:13.036Z,5.30
2018-10-04T02:11:42.492Z,5.70
2018-10-04T02:14:12.029Z,5.43
2018-10-04T02:16:41.395Z,5.83
2018-10-04T02:19:10.839Z,5.53
2018-10-04T02:21:40.642Z,5.47
2018-10-04T02:24:10.075Z,6.03
2018-10-04T02:26:41.923Z,5.33
2018-10-04T02:29:12.817Z,5.53
2018-10-04T02:31:42.412Z,5.60
2018-10-04T02:34:11.886Z,4.93
2018-10-04T02:36:42.260Z,5.57
2018-10-04T02:39:12.430Z,5.73
2018-10-04T02:41:41.834Z,5.70
2018-10-04T02:44:11.157Z,5.40
2018-10-04T02:46:40.557Z,6.00
2018-10-04T02:49:10.089Z,6.00
2018-10-04T02:51:39.576Z,5.20
2018-10-04T02:54:13.685Z,5.50
2018-10-04T02:56:48.313Z,5.67
2018-10-04T02:59:17.643Z,6.33
2018-10-04T03:01:48.306Z,5.67
2018-10-04T03:04:18.183Z,6.17
2018-10-04T03:06:48.439Z,5.77
2018-10-04T03:09:19.067Z,5.80
2018-10-04T03:11:48.585Z,5.60
2018-10-04T03:14:18.841Z,5.10
2018-10-04T03:16:49.138Z,5.70
2018-10-04T03:19:19.730Z,6.20
2018-10-04T03:21:49.202Z,6.23
2018-10-04T03:24:33.915Z,6.00
2018-10-04T03:27:20.848Z,6.20
2018-10-04T03:29:56.730Z,6.17
2018-10-04T03:32:29.307Z,5.60
2018-10-04T03:35:01.928Z,6.00
2018-10-04T03:37:31.979Z,5.47
2018-10-04T03:40:05.616Z,5.93
2018-10-04T03:42:39.638Z,6.17
2018-10-04T03:45:12.777Z,5.50
2018-10-04T03:47:46.685Z,5.87
2018-10-04T03:50:19.262Z,6.03
2018-10-04T03:52:52.276Z,6.17
2018-10-04T03:55:25.253Z,6.50
2018-10-04T03:57:54.850Z,6.70
2018-10-04T04:00:27.293Z,5.97
2018-10-04T04:03:00.345Z,6.03
2018-10-04T04:05:33.403Z,6.23
2018-10-04T04:08:05.787Z,5.47
2018-10-04T04:10:39.659Z,7.10
2018-10-04T04:13:12.182Z,6.37
2018-10-04T04:15:45.290Z,6.23
2018-10-04T04:18:17.408Z,6.80
2018-10-04T04:20:49.530Z,7.20
2018-10-04T04:23:23.601Z,7.00
2018-10-04T04:25:56.555Z,6.77
2018-10-04T04:28:29.135Z,6.40
2018-10-04T04:31:02.165Z,6.87
2018-10-04T04:33:36.278Z,7.37
2018-10-04T04:36:08.737Z,6.83
2018-10-04T04:39:02.649Z,6.70
2018-10-04T04:42:09.092Z,6.57
2018-10-04T04:45:07.028Z,7.30
2018-10-04T04:48:05.491Z,6.77
2018-10-04T04:51:01.976Z,6.47
2018-10-04T04:54:01.816Z,6.17
2018-10-04T04:56:58.623Z,7.10
2018-10-04T04:59:55.061Z,6.37
2018-10-04T05:02:52.930Z,6.97
2018-10-04T05:05:53.765Z,7.17
2018-10-04T05:08:50.933Z,7.33
2018-10-04T05:11:50.426Z,7.73
2018-10-04T05:14:50.113Z,6.53
2018-10-04T05:17:47.466Z,7.50
2018-10-04T05:20:30.226Z,7.03
2018-10-04T05:23:02.308Z,7.10
2018-10-04T05:25:36.304Z,7.83
2018-10-04T05:28:09.096Z,7.63
2018-10-04T05:30:43.139Z,7.67
2018-10-04T05:33:15.665Z,7.37
2018-10-04T05:35:48.214Z,7.07
2018-10-04T05:38:20.940Z,7.20
2018-10-04T05:41:00.401Z,7.47
2018-10-04T05:43:40.010Z,8.03
2018-10-04T05:46:20.498Z,7.00
2018-10-04T05:49:06.058Z,7.27
2018-10-04T05:51:56.582Z,7.80
2018-10-04T05:54:32.041Z,7.23
2018-10-04T05:57:03.614Z,7.17
2018-10-04T05:59:33.953Z,7.07
2018-10-04T06:02:04.027Z,7.43
2018-10-04T06:04:34.065Z,7.57
2018-10-04T06:07:04.385Z,7.60
2018-10-04T06:09:34.823Z,7.37
2018-10-04T06:12:04.721Z,7.80
2018-10-04T06:14:34.863Z,8.17
2018-10-04T06:17:04.315Z,7.10
2018-10-04T06:19:33.668Z,7.20
2018-10-04T06:22:04.080Z,7.57
2018-10-04T06:24:33.352Z,7.70
2018-10-04T06:27:06.653Z,7.57
2018-10-04T06:29:38.300Z,8.53
2018-10-04T06:32:10.038Z,7.20
2018-10-04T06:34:42.932Z,7.93
2018-10-04T06:37:15.158Z,7.50
2018-10-04T06:39:49.880Z,7.67
2018-10-04T06:42:21.190Z,7.43
2018-10-04T06:44:52.385Z,8.03
2018-10-04T06:47:21.773Z,8.07
2018-10-04T06:49:51.945Z,8.50
2018-10-04T06:52:21.344Z,7.33
2018-10-04T06:54:51.262Z,6.93
2018-10-04T06:57:20.647Z,7.73
2018-10-04T06:59:50.986Z,7.80
2018-10-04T07:02:21.014Z,7.90
2018-10-04T07:04:51.410Z,7.43
2018-10-04T07:07:21.864Z,7.43
2018-10-04T07:09:51.489Z,7.37
2018-10-04T07:12:21.000Z,7.73
2018-10-04T07:14:52.046Z,7.47
2018-10-04T07:17:21.683Z,6.40
2018-10-04T07:19:52.280Z,7.53
2018-10-04T07:22:21.661Z,6.50
2018-10-04T07:24:52.635Z,7.33
2018-10-04T07:27:21.953Z,7.20
2018-10-04T07:29:51.460Z,6.67
2018-10-04T07:32:21.732Z,7.03
2018-10-04T07:34:51.190Z,7.70
2018-10-04T07:37:21.038Z,7.50
2018-10-04T07:39:51.317Z,6.60
2018-10-04T07:42:20.975Z,7.80
2018-10-04T07:44:50.387Z,6.77
2018-10-04T07:47:20.033Z,7.53
2018-10-04T07:49:49.405Z,6.03
2018-10-04T07:52:19.493Z,7.73
2018-10-04T07:54:48.878Z,7.83
2018-10-04T07:57:18.153Z,6.87
2018-10-04T07:59:48.991Z,7.43
2018-10-04T08:02:18.297Z,7.60
2018-10-04T08:04:48.920Z,7.23
2018-10-04T08:07:18.676Z,7.70
2018-10-04T08:09:48.440Z,7.17
2018-10-04T08:12:17.682Z,7.97
2018-10-04T08:14:50.049Z,7.23
2018-10-04T08:17:19.636Z,7.43
2018-10-04T08:19:49.171Z,6.80
2018-10-04T08:22:18.715Z,7.70
2018-10-04T08:24:48.741Z,7.70
2018-10-04T08:27:20.107Z,7.93
2018-10-04T08:29:49.813Z,7.30
2018-10-04T08:32:19.415Z,6.90
2018-10-04T08:34:48.775Z,6.90
2018-10-04T08:37:18.416Z,9.57
2018-10-04T08:39:47.868Z,7.23
2018-10-04T08:42:18.484Z,7.60
2018-10-04T08:44:48.584Z,7.43
2018-10-04T08:47:18.250Z,7.20
2018-10-04T08:49:47.888Z,7.60
2018-10-04T08:52:22.628Z,7.73
2018-10-04T08:54:52.856Z,7.70
2018-10-04T08:57:22.393Z,8.97
2018-10-04T08:59:51.912Z,7.43
2018-10-04T09:02:22.169Z,6.97
2018-10-04T09:04:51.790Z,7.50
2018-10-04T09:07:22.407Z,7.53
2018-10-04T09:09:51.759Z,7.03
2018-10-04T09:12:21.611Z,7.40
2018-10-04T09:14:50.876Z,8.40
2018-10-04T09:17:20.846Z,8.23
2018-10-04T09:19:50.423Z,7.80
2018-10-04T09:22:24.806Z,7.97
2018-10-04T09:24:54.640Z,7.60
2018-10-04T09:27:24.817Z,9.93
2018-10-04T09:29:59.515Z,8.10
2018-10-04T09:32:31.535Z,6.90
2018-10-04T09:35:00.858Z,7.93
2018-10-04T09:37:31.840Z,8.03
2018-10-04T09:40:01.405Z,7.20
2018-10-04T09:42:30.782Z,7.67
2018-10-04T09:45:00.130Z,7.70
2018-10-04T09:47:30.591Z,7.53
2018-10-04T09:50:00.548Z,8.27
2018-10-04T09:52:29.858Z,7.87
2018-10-04T09:55:05.441Z,7.13
2018-10-04T09:57:38.525Z,8.13
2018-10-04T10:00:14.907Z,7.40
2018-10-04T10:02:49.840Z,7.50
2018-10-04T10:05:20.221Z,9.20
2018-10-04T10:07:52.432Z,7.50
2018-10-04T10:10:22.737Z,7.53
2018-10-04T10:12:57.426Z,8.97
2018-10-04T10:15:27.974Z,6.63
2018-10-04T10:17:57.719Z,8.37
2018-10-04T10:20:27.731Z,9.13
2018-10-04T10:22:57.155Z,7.23
2018-10-04T10:25:26.926Z,7.33
2018-10-04T10:27:56.454Z,8.23
2018-10-04T10:30:26.870Z,7.40
2018-10-04T10:32:56.879Z,7.63
2018-10-04T10:35:26.976Z,8.30
2018-10-04T10:37:56.642Z,7.90
2018-10-04T10:40:27.433Z,8.03
2018-10-04T10:42:57.644Z,7.47
2018-10-04T10:45:30.001Z,7.37
2018-10-04T10:47:59.612Z,6.50
2018-10-04T10:50:29.073Z,6.23
2018-10-04T10:52:59.473Z,7.20
2018-10-04T10:55:29.294Z,7.10
2018-10-04T10:57:59.530Z,8.07
2018-10-04T11:00:30.025Z,7.30
2018-10-04T11:02:59.689Z,7.03
2018-10-04T11:05:29.122Z,6.80
2018-10-04T11:07:58.545Z,7.83
2018-10-04T11:10:27.965Z,10.60
2018-10-04T11:12:57.470Z,7.13
2018-10-04T11:15:27.694Z,7.80
2018-10-04T11:17:57.283Z,7.13
2018-10-04T11:20:26.709Z,8.50
2018-10-04T11:22:56.117Z,8.37
2018-10-04T11:25:25.566Z,7.80
2018-10-04T11:27:55.066Z,8.53
2018-10-04T11:30:25.478Z,7.00
2018-10-04T11:32:55.003Z,7.90
2018-10-04T11:35:25.458Z,7.33
2018-10-04T11:37:54.955Z,7.67
2018-10-04T11:40:24.669Z,8.20
2018-10-04T11:42:56.165Z,8.10
2018-10-04T11:45:30.981Z,7.87
2018-10-04T11:48:00.494Z,8.17
2018-10-04T11:50:30.363Z,7.63
2018-10-04T11:52:59.717Z,7.93
2018-10-04T11:55:29.185Z,7.70
2018-10-04T11:57:59.137Z,7.33
2018-10-04T12:00:29.109Z,7.87
2018-10-04T12:02:58.558Z,8.33
2018-10-04T12:05:28.739Z,6.73
2018-10-04T12:07:58.139Z,8.00
2018-10-04T12:10:27.731Z,7.50
2018-10-04T12:13:00.098Z,8.17
2018-10-04T12:15:29.460Z,8.37
2018-10-04T12:18:00.504Z,7.80
2018-10-04T12:20:30.507Z,7.70
2018-10-04T12:22:59.974Z,7.87
2018-10-04T12:25:29.314Z,7.90
2018-10-04T12:27:58.980Z,8.50
2018-10-04T12:30:28.888Z,7.30
2018-10-04T12:32:58.311Z,8.27
2018-10-04T12:35:27.776Z,8.50
2018-10-04T12:37:57.939Z,8.37
2018-10-04T12:40:27.472Z,8.87
2018-10-04T12:42:56.883Z,8.40
2018-10-04T12:45:26.225Z,8.30
2018-10-04T12:47:55.499Z,7.97
2018-10-04T12:50:24.963Z,7.70
2018-10-04T12:52:55.359Z,8.33
2018-10-04T12:55:24.833Z,7.93
2018-10-04T12:57:54.878Z,7.47
2018-10-04T13:00:25.443Z,7.87
2018-10-04T13:02:54.875Z,7.33
2018-10-04T13:05:24.417Z,7.17
2018-10-04T13:07:53.853Z,7.37
2018-10-04T13:10:23.525Z,6.73
2018-10-04T13:12:52.833Z,7.23
2018-10-04T13:15:22.242Z,7.47
2018-10-04T13:17:51.691Z,7.83
2018-10-04T13:20:21.317Z,7.00
2018-10-04T13:22:50.708Z,7.47
2018-10-04T13:25:20.096Z,7.60
2018-10-04T13:27:49.486Z,7.10
2018-10-04T13:30:21.245Z,7.40
2018-10-04T13:32:50.897Z,7.40
2018-10-04T13:35:20.607Z,6.90
2018-10-04T13:37:50.338Z,7.00
2018-10-04T13:40:19.740Z,7.87
2018-10-04T13:42:49.136Z,7.20
2018-10-04T13:45:18.747Z,7.00
2018-10-04T13:47:48.760Z,7.20
2018-10-04T13:50:18.477Z,6.70
2018-10-04T13:52:48.288Z,6.30
2018-10-04T13:55:17.659Z,6.83
2018-10-04T13:57:47.777Z,6.50
2018-10-04T14:00:17.110Z,6.60
2018-10-04T14:02:46.853Z,6.53
2018-10-04T14:05:16.299Z,5.97
2018-10-04T14:07:46.042Z,6.10
2018-10-04T14:10:16.081Z,6.40
2018-10-04T14:12:46.336Z,6.33
2018-10-04T14:15:16.007Z,7.47
2018-10-04T14:17:45.759Z,6.57
2018-10-04T14:20:15.571Z,6.67
2018-10-04T14:22:46.307Z,6.40
2018-10-04T14:25:16.999Z,6.90
2018-10-04T14:27:46.658Z,6.97
2018-10-04T14:30:16.901Z,7.67
2018-10-04T14:32:46.439Z,7.07
2018-10-04T14:35:16.745Z,7.90
2018-10-04T14:37:46.040Z,6.90
2018-10-04T14:40:15.485Z,7.83
2018-10-04T14:42:45.126Z,7.63
2018-10-04T14:45:14.449Z,7.97
2018-10-04T14:47:45.798Z,7.80
2018-10-04T14:50:16.559Z,8.87
2018-10-04T14:52:46.658Z,8.13
2018-10-04T14:55:16.338Z,7.63
2018-10-04T14:57:45.609Z,8.20
2018-10-04T15:00:14.884Z,7.70
2018-10-04T15:02:44.790Z,8.77
2018-10-04T15:05:15.148Z,8.70
2018-10-04T15:07:44.502Z,8.23
2018-10-04T15:10:13.855Z,8.90
2018-10-04T15:12:44.073Z,8.53
2018-10-04T15:15:14.004Z,8.27
2018-10-04T15:17:43.782Z,8.47
2018-10-04T15:20:16.150Z,9.20
2018-10-04T15:22:45.554Z,8.13
2018-10-04T15:25:15.550Z,9.47
2018-10-04T15:27:44.971Z,9.43
2018-10-04T15:30:14.586Z,8.83
2018-10-04T15:32:44.820Z,9.67
2018-10-04T15:35:14.141Z,9.57
2018-10-04T15:37:43.580Z,9.47
2018-10-04T15:40:13.275Z,10.17
2018-10-04T15:42:42.850Z,9.50
2018-10-04T15:45:12.632Z,9.97
2018-10-04T15:47:43.171Z,9.80
2018-10-04T15:50:12.634Z,9.77
2018-10-04T15:52:42.243Z,10.90
2018-10-04T15:55:13.200Z,10.73
2018-10-04T15:57:42.561Z,9.57
2018-10-04T16:00:11.865Z,10.60
2018-10-04T16:02:41.552Z,10.97
2018-10-04T16:05:11.163Z,10.80
2018-10-04T16:07:40.380Z,10.40
2018-10-04T16:10:10.532Z,10.73
2018-10-04T16:12:40.422Z,10.53
2018-10-04T16:15:13.836Z,11.27
2018-10-04T16:17:43.283Z,12.17
2018-10-04T16:20:12.726Z,11.57
2018-10-04T16:22:42.114Z,12.03
2018-10-04T16:25:11.977Z,12.20
2018-10-04T16:27:49.099Z,11.73
2018-10-04T16:30:19.458Z,12.30
2018-10-04T16:32:49.150Z,11.93
2018-10-04T16:35:19.260Z,12.53
2018-10-04T16:37:49.325Z,12.27
2018-10-04T16:40:18.657Z,12.73
2018-10-04T16:42:47.915Z,13.00
2018-10-04T16:45:18.100Z,14.87
2018-10-04T16:47:47.486Z,14.53
2018-10-04T16:50:18.697Z,14.10
2018-10-04T16:52:48.331Z,13.70
2018-10-04T16:55:18.802Z,13.80
2018-10-04T16:57:48.266Z,13.97
2018-10-04T17:00:17.909Z,15.27
2018-10-04T17:02:47.970Z,13.67
2018-10-04T17:05:17.759Z,14.77
2018-10-04T17:07:47.629Z,14.90
2018-10-04T17:10:18.525Z,14.97
2018-10-04T17:12:48.380Z,13.33
2018-10-04T17:15:17.950Z,14.80
2018-10-04T17:17:47.813Z,14.33
2018-10-04T17:20:17.235Z,13.17
2018-10-04T17:22:47.340Z,14.03
2018-10-04T17:25:18.605Z,14.47
2018-10-04T17:27:48.360Z,14.57
2018-10-04T17:30:18.993Z,14.67
2018-10-04T17:32:50.142Z,14.33
2018-10-04T17:35:19.879Z,14.57
2018-10-04T17:37:49.496Z,14.67
2018-10-04T17:40:19.275Z,15.27
2018-10-04T17:42:48.981Z,15.73
2018-10-04T17:45:19.918Z,15.60
2018-10-04T17:47:49.663Z,13.83
2018-10-04T17:50:19.152Z,15.20
2018-10-04T17:52:48.697Z,15.03
2018-10-04T17:55:18.287Z,14.80
2018-10-04T17:57:47.661Z,14.07
2018-10-04T18:00:17.095Z,14.27
2018-10-04T18:02:46.994Z,14.53
2018-10-04T18:05:16.506Z,14.13
2018-10-04T18:07:46.222Z,13.87
2018-10-04T18:10:16.357Z,12.97
2018-10-04T18:12:45.948Z,12.47
2018-10-04T18:15:15.149Z,12.83
2018-10-04T18:17:44.881Z,14.03
2018-10-04T18:20:15.393Z,14.67
2018-10-04T18:22:44.950Z,15.20
2018-10-04T18:25:14.242Z,13.63
2018-10-04T18:27:43.636Z,14.37
2018-10-04T18:30:13.034Z,14.17
2018-10-04T18:32:42.391Z,14.80
2018-10-04T18:35:12.052Z,15.17
2018-10-04T18:37:41.308Z,14.30
2018-10-04T18:40:11.000Z,14.07
2018-10-04T18:42:40.563Z,14.90
2018-10-04T18:45:09.861Z,14.63
2018-10-04T18:47:39.755Z,14.53
2018-10-04T18:50:09.610Z,13.40
2018-10-04T18:52:40.007Z,13.53
2018-10-04T18:55:09.493Z,14.13
2018-10-04T18:57:38.815Z,14.00
2018-10-04T19:00:08.246Z,13.87
2018-10-04T19:02:37.600Z,14.43
2018-10-04T19:05:07.280Z,13.97
2018-10-04T19:07:36.573Z,13.77
2018-10-04T19:10:06.037Z,13.23
2018-10-04T19:12:35.519Z,13.43
2018-10-04T19:15:05.000Z,13.60
2018-10-04T19:17:34.544Z,13.23
2018-10-04T19:20:03.977Z,13.47
2018-10-04T19:22:33.413Z,12.30
2018-10-04T19:25:03.775Z,12.27
2018-10-04T19:27:33.127Z,12.83
2018-10-04T19:30:02.503Z,11.53
2018-10-04T19:32:31.886Z,12.10
2018-10-04T19:35:02.262Z,12.17
2018-10-04T19:37:31.939Z,11.20
2018-10-04T19:40:01.286Z,11.33
2018-10-04T19:42:31.158Z,12.30
2018-10-04T19:45:00.585Z,11.17
2018-10-04T19:47:30.465Z,11.07
2018-10-04T19:49:59.753Z,11.67
2018-10-04T19:52:29.333Z,11.37
2018-10-04T19:54:58.589Z,11.33
2018-10-04T19:57:28.127Z,11.10
2018-10-04T19:59:57.563Z,11.77
2018-10-04T20:02:26.867Z,12.20
2018-10-04T20:04:56.354Z,11.30
2018-10-04T20:07:25.829Z,10.53
2018-10-04T20:09:55.252Z,10.37
2018-10-04T20:12:26.481Z,11.13
2018-10-04T20:14:56.724Z,10.97
2018-10-04T20:17:26.910Z,10.90
2018-10-04T20:19:56.326Z,11.57
2018-10-04T20:22:26.106Z,11.40
2018-10-04T20:24:57.652Z,12.33
2018-10-04T20:27:28.672Z,12.33
2018-10-04T20:29:58.365Z,11.67
2018-10-04T20:32:28.040Z,11.13
2018-10-04T20:34:57.485Z,11.50
2018-10-04T20:37:26.879Z,11.93
2018-10-04T20:39:56.277Z,11.57
2018-10-04T20:42:25.688Z,11.93
2018-10-04T20:44:55.238Z,11.93
2018-10-04T20:47:24.656Z,12.70
2018-10-04T20:49:54.096Z,12.37
2018-10-04T20:52:23.350Z,11.10
2018-10-04T20:54:52.764Z,10.87
2018-10-04T20:57:22.213Z,10.67
2018-10-04T20:59:51.941Z,11.03
2018-10-04T21:02:21.209Z,11.57
2018-10-04T21:04:50.709Z,12.30
2018-10-04T21:07:20.304Z,12.00
2018-10-04T21:09:49.916Z,10.63
2018-10-04T21:12:19.702Z,11.30
2018-10-04T21:14:49.000Z,12.33
2018-10-04T21:17:18.235Z,12.80
2018-10-04T21:19:47.478Z,11.40
2018-10-04T21:22:17.764Z,11.33
2018-10-04T21:24:47.972Z,11.27
2018-10-04T21:27:17.458Z,12.00
2018-10-04T21:29:47.161Z,11.37
2018-10-04T21:32:16.420Z,11.30
2018-10-04T21:34:45.959Z,10.23
2018-10-04T21:37:15.018Z,12.20
2018-10-04T21:39:44.611Z,10.83
2018-10-04T21:42:13.981Z,17.30
2018-10-04T21:44:43.353Z,11.67
2018-10-04T21:47:12.954Z,11.07
2018-10-04T21:49:42.482Z,11.40
2018-10-04T21:52:12.615Z,11.10
2018-10-04T21:54:42.642Z,10.13
2018-10-04T21:57:12.311Z,10.20
2018-10-04T21:59:42.290Z,11.40
2018-10-04T22:02:11.796Z,11.10
2018-10-04T22:04:41.313Z,10.23
2018-10-04T22:07:12.672Z,10.57
2018-10-04T22:09:41.942Z,11.47
2018-10-04T22:12:11.376Z,11.00
2018-10-04T22:14:41.015Z,12.33
2018-10-04T22:17:10.380Z,11.27
2018-10-04T22:19:39.894Z,10.50
2018-10-04T22:22:09.464Z,10.07
2018-10-04T22:24:39.107Z,11.10
2018-10-04T22:27:08.713Z,10.70
2018-10-04T22:29:39.798Z,11.27
2018-10-04T22:32:09.487Z,10.83
2018-10-04T22:34:39.039Z,11.30
2018-10-04T22:37:09.537Z,11.47
2018-10-04T22:41:58.894Z,10.63
2018-10-04T22:44:28.673Z,11.63
2018-10-04T22:46:57.935Z,10.70
2018-10-04T22:49:27.288Z,10.40
2018-10-04T22:51:56.572Z,9.93
2018-10-04T22:54:25.935Z,10.23
2018-10-04T22:56:55.345Z,10.53
2018-10-04T22:59:24.975Z,10.67
2018-10-04T23:01:54.405Z,10.63
2018-10-04T23:04:23.782Z,10.70
2018-10-04T23:06:53.254Z,10.23
2018-10-04T23:09:22.599Z,10.23
2018-10-04T23:11:52.060Z,10.53
2018-10-04T23:14:21.561Z,10.93
2018-10-04T23:16:51.165Z,11.10
2018-10-04T23:19:20.779Z,10.30
2018-10-04T23:21:50.137Z,10.17
2018-10-04T23:24:20.043Z,9.77
2018-10-04T23:26:49.273Z,10.57
2018-10-04T23:29:18.763Z,10.27
2018-10-04T23:31:48.019Z,11.03
2018-10-04T23:34:17.500Z,11.17
2018-10-04T23:36:46.752Z,10.53
2018-10-04T23:39:15.957Z,10.17
2018-10-04T23:41:45.395Z,10.03
2018-10-04T23:44:14.723Z,9.63
2018-10-04T23:46:44.185Z,8.87
2018-10-04T23:49:13.741Z,9.20
2018-10-04T23:51:43.064Z,10.10
2018-10-04T23:54:12.576Z,9.17
2018-10-04T23:56:42.008Z,9.30
2018-10-04T23:59:11.554Z,9.43
